Time;durP1;ratioP1;P1;durP2;ratioP2;P2;SDS_P1;SDS_P2;PMS_P1;PMS_P2;Temp;Humidity;BMP_temperature;BMP_pressure;BME280_temperature;BME280_humidity;BME280_pressure;Samples;Min_cycle;Max_cycle;Signal;HPM_P1;HPM_P2
2024/04/03 00:00:04;;;;;;;3.55;0.80;;;10.80;99.90;;;;;;5075761;28;20038;-83
2024/04/03 00:02:30;;;;;;;3.15;0.90;;;10.80;99.90;;;;;;5075629;28;20053;-82
2024/04/03 00:04:56;;;;;;;3.50;1.08;;;10.70;99.90;;;;;;5076035;28;20024;-82
2024/04/03 00:07:21;;;;;;;1.88;0.70;;;10.70;99.90;;;;;;5075656;28;20070;-83
2024/04/03 00:09:47;;;;;;;2.00;0.88;;;10.70;99.90;;;;;;5093510;28;20350;-82
2024/04/03 00:12:12;;;;;;;4.10;0.90;;;10.70;99.90;;;;;;5093042;28;20020;-82
2024/04/03 00:14:38;;;;;;;3.03;0.95;;;10.70;99.90;;;;;;5075238;28;20439;-82
2024/04/03 00:17:04;;;;;;;7.05;1.02;;;10.70;99.90;;;;;;5075330;28;20039;-82
2024/04/03 00:19:29;;;;;;;3.92;1.45;;;10.60;99.90;;;;;;5075919;28;20342;-81
2024/04/03 00:21:55;;;;;;;3.65;0.90;;;10.60;99.90;;;;;;5075720;28;20024;-84
2024/04/03 00:24:20;;;;;;;2.67;1.02;;;10.50;99.90;;;;;;5075483;28;20047;-83
2024/04/03 00:26:46;;;;;;;6.38;1.10;;;10.50;99.90;;;;;;5075711;28;20059;-84
2024/04/03 00:29:12;;;;;;;5.15;0.95;;;10.40;99.90;;;;;;5075411;28;20065;-84
2024/04/03 00:31:37;;;;;;;3.95;1.15;;;10.40;99.90;;;;;;5093727;28;20024;-84
2024/04/03 00:34:03;;;;;;;4.57;1.02;;;10.40;99.90;;;;;;5093250;28;20016;-86
2024/04/03 00:36:29;;;;;;;4.13;0.93;;;10.20;99.90;;;;;;5075616;28;20099;-84
2024/04/03 00:38:55;;;;;;;4.80;0.90;;;10.20;99.90;;;;;;5093689;28;20050;-84
2024/04/03 00:41:23;;;;;;;5.82;0.98;;;10.20;99.90;;;;;;5075214;28;20087;-84
2024/04/03 00:43:49;;;;;;;2.58;1.10;;;10.10;99.90;;;;;;5075346;28;20017;-83
2024/04/03 00:46:15;;;;;;;2.20;0.73;;;9.90;99.90;;;;;;5075355;28;20531;-83
2024/04/03 00:48:42;;;;;;;5.40;1.17;;;9.90;99.90;;;;;;5075776;28;20016;-84
2024/04/03 00:51:09;;;;;;;3.83;1.13;;;9.90;99.90;;;;;;5092960;28;20032;-83
2024/04/03 00:53:36;;;;;;;6.60;1.67;;;9.90;99.90;;;;;;5075749;28;20452;-84
2024/04/03 00:56:02;;;;;;;4.35;1.00;;;9.80;99.90;;;;;;5077784;28;20032;-86
2024/04/03 00:58:27;;;;;;;3.95;1.02;;;9.80;99.90;;;;;;5096593;28;20027;-84
2024/04/03 01:00:53;;;;;;;4.32;0.90;;;9.80;99.90;;;;;;5079268;28;20429;-84
2024/04/03 01:03:18;;;;;;;2.10;0.90;;;9.70;99.90;;;;;;5078571;28;20016;-84
2024/04/03 01:05:44;;;;;;;1.80;0.80;;;9.70;99.90;;;;;;5078730;28;20111;-84
2024/04/03 01:08:09;;;;;;;4.65;1.20;;;9.60;99.90;;;;;;5096375;28;20361;-85
2024/04/03 01:10:35;;;;;;;1.67;0.77;;;9.70;99.90;;;;;;5078975;28;20055;-84
2024/04/03 01:13:01;;;;;;;3.05;1.00;;;9.60;99.90;;;;;;5079220;28;20054;-82
2024/04/03 01:15:28;;;;;;;3.15;1.40;;;9.60;99.90;;;;;;5096351;28;20024;-82
2024/04/03 01:17:53;;;;;;;1.75;0.90;;;9.60;99.90;;;;;;5096387;28;20060;-80
2024/04/03 01:20:19;;;;;;;2.47;0.90;;;9.50;99.90;;;;;;5078230;28;20031;-82
2024/04/03 01:22:45;;;;;;;3.03;1.10;;;9.50;99.90;;;;;;5078720;28;20111;-82
2024/04/03 01:25:10;;;;;;;3.20;0.90;;;9.50;99.90;;;;;;5078631;28;20020;-82
2024/04/03 01:27:36;;;;;;;1.33;0.80;;;9.50;99.90;;;;;;5078694;28;20031;-82
2024/04/03 01:30:02;;;;;;;2.65;0.88;;;9.40;99.90;;;;;;5078967;28;20077;-82
2024/04/03 01:32:28;;;;;;;1.25;0.90;;;9.50;99.90;;;;;;5096411;28;20156;-82
2024/04/03 01:34:54;;;;;;;5.47;0.80;;;9.40;99.90;;;;;;5079213;28;20396;-82
2024/04/03 01:37:20;;;;;;;4.70;1.52;;;9.40;99.90;;;;;;5096284;28;20020;-83
2024/04/03 01:39:46;;;;;;;1.90;0.93;;;9.50;99.90;;;;;;5078841;28;20437;-82
2024/04/03 01:42:12;;;;;;;5.55;1.30;;;9.50;99.90;;;;;;5078081;28;20168;-84
2024/04/03 01:44:39;;;;;;;2.90;1.10;;;9.50;99.90;;;;;;5078230;28;20068;-83
2024/04/03 01:47:05;;;;;;;4.10;1.25;;;9.40;99.90;;;;;;5078647;28;20108;-86
2024/04/03 01:49:31;;;;;;;3.10;0.95;;;9.50;99.90;;;;;;5078517;28;20056;-84
2024/04/03 01:51:57;;;;;;;2.08;0.80;;;9.50;99.90;;;;;;5078191;28;20098;-84
2024/04/03 01:54:22;;;;;;;3.13;0.82;;;9.50;99.90;;;;;;5078117;28;20031;-83
2024/04/03 01:56:48;;;;;;;3.53;1.20;;;9.50;99.90;;;;;;5078459;28;20024;-83
2024/04/03 01:59:14;;;;;;;2.95;1.13;;;9.50;99.90;;;;;;5095370;28;20058;-85
2024/04/03 02:01:39;;;;;;;3.58;0.90;;;9.50;99.90;;;;;;5078565;28;20449;-84
2024/04/03 02:04:05;;;;;;;2.95;1.08;;;9.50;99.90;;;;;;5077758;28;20350;-86
2024/04/03 02:06:31;;;;;;;4.05;1.48;;;9.50;99.90;;;;;;5095881;28;20102;-84
2024/04/03 02:08:56;;;;;;;5.22;1.67;;;9.40;99.90;;;;;;5077789;28;20023;-84
2024/04/03 02:11:22;;;;;;;4.57;1.50;;;9.50;99.90;;;;;;5077503;28;20020;-84
2024/04/03 02:13:48;;;;;;;7.07;1.92;;;9.50;99.90;;;;;;5077763;28;20020;-84
2024/04/03 02:16:13;;;;;;;7.80;1.70;;;9.60;99.90;;;;;;5077187;28;20036;-85
2024/04/03 02:18:39;;;;;;;8.68;1.73;;;9.60;99.90;;;;;;5078165;28;20056;-84
2024/04/03 02:21:05;;;;;;;4.30;1.50;;;9.60;99.90;;;;;;5078080;28;20028;-86
2024/04/03 02:23:31;;;;;;;6.40;1.80;;;9.60;99.90;;;;;;5095396;28;20111;-85
2024/04/03 02:25:57;;;;;;;5.55;1.48;;;9.60;99.90;;;;;;5077893;28;20020;-86
2024/04/03 02:28:22;;;;;;;4.43;1.52;;;9.60;99.90;;;;;;5077099;28;20103;-86
2024/04/03 02:30:48;;;;;;;4.95;1.30;;;9.60;99.90;;;;;;5095595;28;20048;-86
2024/04/03 02:33:14;;;;;;;3.08;1.05;;;9.60;99.90;;;;;;5077260;28;20020;-86
2024/04/03 02:35:39;;;;;;;4.28;1.10;;;9.60;99.90;;;;;;5095430;28;20034;-86
2024/04/03 02:38:05;;;;;;;3.75;1.13;;;9.60;99.90;;;;;;5077511;28;20028;-85
2024/04/03 02:40:30;;;;;;;3.45;1.15;;;9.60;99.90;;;;;;5094948;28;20504;-84
2024/04/03 02:42:58;;;;;;;2.88;0.80;;;9.60;99.90;;;;;;5077576;28;20024;-82
2024/04/03 02:45:24;;;;;;;4.93;1.15;;;9.60;99.90;;;;;;5076899;28;20048;-83
2024/04/03 02:47:49;;;;;;;2.45;1.10;;;9.60;99.90;;;;;;5077261;28;20037;-84
2024/04/03 02:50:15;;;;;;;3.70;1.33;;;9.60;99.90;;;;;;5094551;28;20020;-84
2024/04/03 02:52:40;;;;;;;6.90;1.20;;;9.70;99.90;;;;;;5077074;28;20027;-84
2024/04/03 02:55:06;;;;;;;3.42;1.00;;;9.70;99.90;;;;;;5077523;28;20028;-83
2024/04/03 02:57:32;;;;;;;6.75;1.10;;;9.60;99.90;;;;;;5094795;28;20034;-84
2024/04/03 02:59:57;;;;;;;6.28;1.65;;;9.70;99.90;;;;;;5095275;28;20448;-84
2024/04/03 03:02:23;;;;;;;4.60;1.73;;;9.70;99.90;;;;;;5076827;28;20020;-84
2024/04/03 03:04:49;;;;;;;3.03;1.08;;;9.70;99.90;;;;;;5077512;28;20024;-84
2024/04/03 03:07:14;;;;;;;2.75;1.10;;;9.70;99.90;;;;;;5076757;28;20038;-84
2024/04/03 03:09:40;;;;;;;3.00;1.27;;;9.70;99.90;;;;;;5077433;28;20024;-84
2024/04/03 03:12:06;;;;;;;3.28;1.08;;;9.70;99.90;;;;;;5076890;28;20475;-84
2024/04/03 03:14:31;;;;;;;2.00;1.00;;;9.70;99.90;;;;;;5076483;28;20020;-84
2024/04/03 03:16:57;;;;;;;4.93;1.08;;;9.70;99.90;;;;;;5094485;28;20031;-84
2024/04/03 03:19:23;;;;;;;3.53;1.10;;;9.60;99.90;;;;;;5076234;28;20524;-84
2024/04/03 03:21:49;;;;;;;4.18;1.00;;;9.60;99.90;;;;;;5094505;28;20150;-84
2024/04/03 03:24:16;;;;;;;4.00;1.10;;;9.60;99.90;;;;;;5076122;28;20118;-85
2024/04/03 03:26:42;;;;;;;2.53;0.75;;;9.60;99.90;;;;;;5076640;28;20020;-84
2024/04/03 03:29:07;;;;;;;4.00;1.25;;;9.60;99.90;;;;;;5094410;28;20035;-84
2024/04/03 03:31:33;;;;;;;3.70;1.23;;;9.60;99.90;;;;;;5076477;28;20618;-85
2024/04/03 03:33:59;;;;;;;2.25;0.82;;;9.50;99.90;;;;;;5076599;28;20459;-84
2024/04/03 03:36:24;;;;;;;10.57;1.35;;;9.60;99.90;;;;;;5093822;28;20388;-85
2024/04/03 03:38:50;;;;;;;1.70;0.75;;;9.60;99.90;;;;;;5076766;28;20073;-85
2024/04/03 03:41:15;;;;;;;2.95;1.20;;;9.60;99.90;;;;;;5075551;28;20040;-85
2024/04/03 03:43:41;;;;;;;2.97;1.00;;;9.60;99.90;;;;;;5093866;28;20028;-85
2024/04/03 03:46:06;;;;;;;3.25;0.80;;;9.60;99.90;;;;;;5093578;28;20119;-85
2024/04/03 03:54:02;;;;;;;2.45;0.90;;;9.70;99.90;;;;;;5094174;28;20089;-83
2024/04/03 03:56:28;;;;;;;3.25;0.85;;;9.70;99.90;;;;;;5075510;28;20059;-83
2024/04/03 03:58:54;;;;;;;3.10;0.73;;;9.70;99.90;;;;;;5075976;28;20059;-83
2024/04/03 04:01:19;;;;;;;1.80;0.77;;;9.70;99.90;;;;;;5075345;28;20373;-84
2024/04/03 04:03:45;;;;;;;2.83;0.70;;;9.60;99.90;;;;;;5075450;28;20110;-84
2024/04/03 04:06:11;;;;;;;3.25;0.93;;;9.60;99.90;;;;;;5075683;28;20027;-84
2024/04/03 04:08:36;;;;;;;3.65;0.90;;;9.70;99.90;;;;;;5075296;28;20024;-83
2024/04/03 04:11:03;;;;;;;4.18;1.33;;;9.60;99.90;;;;;;5076039;28;20024;-84
2024/04/03 04:13:29;;;;;;;4.35;1.27;;;9.60;99.90;;;;;;5074814;28;20020;-84
2024/04/03 04:15:58;;;;;;;2.40;1.20;;;9.50;99.90;;;;;;5093845;28;20035;-84
2024/04/03 04:18:24;;;;;;;4.57;0.90;;;9.50;99.90;;;;;;5074822;28;20020;-84
2024/04/03 04:20:58;;;;;;;3.92;1.10;;;9.40;99.90;;;;;;5075994;28;20020;-84
2024/04/03 04:23:24;;;;;;;4.82;0.90;;;9.50;99.90;;;;;;5093127;28;20023;-84
2024/04/03 04:26:01;;;;;;;6.20;0.95;;;9.40;99.90;;;;;;5093344;28;20115;-83
2024/04/03 04:28:30;;;;;;;3.25;0.85;;;9.40;99.90;;;;;;5075073;28;20027;-82
2024/04/03 04:30:57;;;;;;;1.83;0.75;;;9.40;99.90;;;;;;5078098;28;20020;-82
2024/04/03 04:33:23;;;;;;;5.45;0.80;;;9.50;99.90;;;;;;5079375;28;20482;-83
2024/04/03 04:35:56;;;;;;;3.33;1.02;;;9.50;99.90;;;;;;5079923;28;20028;-83
2024/04/03 04:38:23;;;;;;;2.05;0.60;;;9.50;99.90;;;;;;5097184;28;20035;-84
2024/04/03 04:41:03;;;;;;;3.50;1.00;;;9.60;99.90;;;;;;5079412;28;20020;-83
2024/04/03 04:43:30;;;;;;;5.53;1.90;;;9.60;99.90;;;;;;5078655;28;20028;-83
2024/04/03 04:46:00;;;;;;;11.10;3.80;;;9.60;99.90;;;;;;5097913;28;20052;-81
2024/04/03 04:48:27;;;;;;;8.88;4.10;;;9.70;99.90;;;;;;5079270;28;20407;-82
2024/04/03 04:50:54;;;;;;;7.32;3.67;;;9.70;99.90;;;;;;5079577;28;20020;-82
2024/04/03 04:53:20;;;;;;;5.63;1.80;;;9.70;99.90;;;;;;5078830;28;20027;-83
2024/04/03 04:56:18;;;;;;;5.75;1.23;;;9.80;99.90;;;;;;5079294;28;20027;-82
2024/04/03 04:58:43;;;;;;;4.50;1.25;;;9.80;99.90;;;;;;5041769;28;20036;-83
2024/04/03 05:01:09;;;;;;;3.05;1.08;;;9.90;99.90;;;;;;5079421;28;20475;-81
2024/04/03 05:03:36;;;;;;;1.35;1.00;;;9.90;99.90;;;;;;5097200;28;20028;-82
2024/04/03 05:06:03;;;;;;;3.08;0.90;;;9.90;99.90;;;;;;5079116;28;20032;-85
2024/04/03 05:08:31;;;;;;;2.90;0.63;;;9.90;99.90;;;;;;5096952;28;20027;-84
2024/04/03 05:10:58;;;;;;;6.30;1.23;;;9.90;99.90;;;;;;5079108;28;20020;-84
2024/04/03 05:13:33;;;;;;;3.20;1.00;;;9.90;99.90;;;;;;5096435;28;20020;-83
2024/04/03 05:16:20;;;;;;;2.63;1.00;;;10.00;99.90;;;;;;5079233;28;20055;-86
2024/04/03 05:18:46;;;;;;;5.03;1.00;;;10.00;99.90;;;;;;5068439;28;20070;-87
2024/04/03 05:21:12;;;;;;;2.65;1.15;;;10.00;99.90;;;;;;5076910;28;20024;-83
2024/04/03 05:23:38;;;;;;;4.22;0.98;;;10.00;99.90;;;;;;5059244;28;20035;-85
2024/04/03 05:26:06;;;;;;;5.15;1.23;;;10.00;99.90;;;;;;5058673;28;20021;-85
2024/04/03 05:28:38;;;;;;;6.43;1.00;;;9.90;99.90;;;;;;5058383;28;20021;-84
2024/04/03 05:31:11;;;;;;;1.80;0.90;;;10.00;99.90;;;;;;5058721;28;20024;-84
2024/04/03 05:33:37;;;;;;;2.40;0.68;;;10.00;99.90;;;;;;5058592;28;20020;-84
2024/04/03 05:36:05;;;;;;;1.40;0.90;;;10.00;99.90;;;;;;5076303;28;20023;-85
2024/04/03 05:38:31;;;;;;;1.70;0.75;;;10.00;99.90;;;;;;5057944;28;20120;-85
2024/04/03 05:40:57;;;;;;;4.28;0.90;;;9.90;99.90;;;;;;5057963;28;20433;-85
2024/04/03 05:43:24;;;;;;;1.45;0.88;;;10.00;99.90;;;;;;5057822;28;20066;-79
2024/04/03 05:45:53;;;;;;;5.53;1.25;;;10.00;99.90;;;;;;5058396;28;20052;-88
2024/04/03 05:48:22;;;;;;;2.75;1.08;;;10.00;99.90;;;;;;5058200;28;20040;-86
2024/04/03 05:51:00;;;;;;;3.03;1.02;;;10.00;99.90;;;;;;5058674;28;20077;-80
2024/04/03 05:53:26;;;;;;;2.85;0.98;;;10.00;99.90;;;;;;5058163;28;20458;-88
2024/04/03 05:55:56;;;;;;;3.72;0.85;;;10.00;99.90;;;;;;5058281;28;20024;-88
2024/04/03 05:58:22;;;;;;;1.55;0.70;;;10.00;99.90;;;;;;5075574;28;20032;-86
2024/04/03 06:00:48;;;;;;;2.38;0.75;;;10.00;99.90;;;;;;5075440;28;20025;-89
2024/04/03 06:03:14;;;;;;;2.30;0.77;;;10.00;99.90;;;;;;5075576;28;20031;-88
2024/04/03 06:05:39;;;;;;;2.58;0.75;;;10.10;99.90;;;;;;5057223;28;20029;-87
2024/04/03 06:08:05;;;;;;;2.75;0.70;;;10.10;99.90;;;;;;5057990;28;20056;-89
2024/04/03 06:10:33;;;;;;;2.47;0.80;;;10.10;99.90;;;;;;5057520;28;20107;-90
2024/04/03 06:12:59;;;;;;;1.17;0.60;;;10.10;99.90;;;;;;5057751;28;20020;-89
2024/04/03 06:15:24;;;;;;;1.27;0.70;;;10.10;99.90;;;;;;5057519;28;20042;-89
2024/04/03 06:17:50;;;;;;;3.03;1.25;;;10.10;99.90;;;;;;5075312;28;20036;-89
2024/04/03 06:20:15;;;;;;;5.13;0.90;;;10.10;99.90;;;;;;5057883;28;20036;-89
2024/04/03 06:22:41;;;;;;;3.95;0.75;;;10.20;99.90;;;;;;5057401;28;20028;-89
2024/04/03 06:25:07;;;;;;;2.95;0.60;;;10.20;99.90;;;;;;5057896;28;20099;-89
2024/04/03 06:27:33;;;;;;;2.10;1.00;;;10.20;99.90;;;;;;5075262;28;20023;-89
2024/04/03 06:29:58;;;;;;;2.15;0.85;;;10.30;99.90;;;;;;5058345;28;20020;-89
2024/04/03 06:32:24;;;;;;;1.50;0.55;;;10.30;99.90;;;;;;5057639;28;20070;-88
2024/04/03 06:34:49;;;;;;;1.95;0.80;;;10.30;99.90;;;;;;5057977;28;20056;-88
2024/04/03 06:37:15;;;;;;;2.03;0.85;;;10.30;99.90;;;;;;5057544;28;20457;-89
2024/04/03 06:39:40;;;;;;;3.72;0.80;;;10.30;99.90;;;;;;5056935;28;20029;-89
2024/04/03 06:42:06;;;;;;;3.42;0.75;;;10.40;99.90;;;;;;5075106;28;20032;-89
2024/04/03 06:44:37;;;;;;;2.88;0.70;;;10.30;99.90;;;;;;5056991;28;20465;-88
2024/04/03 06:47:03;;;;;;;2.17;0.60;;;10.40;99.90;;;;;;5057499;28;20060;-89
2024/04/03 06:49:29;;;;;;;8.30;0.93;;;10.40;99.90;;;;;;5057077;28;20365;-88
2024/04/03 06:51:55;;;;;;;1.65;0.60;;;10.40;99.90;;;;;;5074977;28;20426;-89
2024/04/03 06:54:21;;;;;;;2.42;0.68;;;10.40;99.90;;;;;;5074955;28;20150;-89
2024/04/03 06:56:50;;;;;;;3.53;0.60;;;10.40;99.90;;;;;;5074877;28;20055;-87
2024/04/03 06:59:16;;;;;;;1.00;0.60;;;10.30;99.90;;;;;;5057267;28;20035;-89
2024/04/03 07:01:42;;;;;;;2.35;0.73;;;10.30;99.90;;;;;;5056531;28;20029;-88
2024/04/03 07:04:07;;;;;;;1.70;0.70;;;10.30;99.90;;;;;;5057458;28;20027;-88
2024/04/03 07:06:33;;;;;;;4.20;0.70;;;10.30;99.90;;;;;;5056679;28;20111;-88
2024/04/03 07:08:59;;;;;;;2.95;0.73;;;10.30;99.90;;;;;;5057306;28;20038;-89
2024/04/03 07:11:25;;;;;;;2.28;1.35;;;10.40;99.90;;;;;;5056690;28;20020;-88
2024/04/03 07:13:50;;;;;;;3.50;0.82;;;10.40;99.90;;;;;;5057316;28;20086;-88
2024/04/03 07:16:16;;;;;;;1.65;0.93;;;10.50;99.90;;;;;;5074652;28;20037;-89
2024/04/03 07:18:41;;;;;;;3.33;0.70;;;10.50;99.90;;;;;;5074106;28;20056;-89
2024/04/03 07:21:08;;;;;;;0.70;0.50;;;10.50;99.90;;;;;;5074217;28;20074;-91
2024/04/03 07:23:34;;;;;;;2.58;0.60;;;10.60;99.90;;;;;;5056348;28;20032;-88
2024/04/03 07:25:59;;;;;;;3.75;1.10;;;10.70;99.90;;;;;;5074483;28;20028;-90
2024/04/03 07:28:29;;;;;;;0.75;0.40;;;10.70;99.90;;;;;;5056343;28;20111;-90
2024/04/03 07:30:57;;;;;;;2.58;0.60;;;10.80;99.90;;;;;;5056849;28;20028;-91
2024/04/03 07:33:22;;;;;;;0.85;0.47;;;10.80;99.90;;;;;;5056765;28;20021;-93
2024/04/03 07:35:49;;;;;;;5.07;0.75;;;10.90;99.90;;;;;;5056027;28;20099;-90
2024/04/03 07:38:15;;;;;;;4.10;0.60;;;10.90;99.90;;;;;;5056703;28;20477;-90
2024/04/03 07:40:44;;;;;;;2.97;0.73;;;11.00;99.90;;;;;;5056221;28;20024;-89
2024/04/03 07:43:10;;;;;;;1.63;0.77;;;11.10;99.90;;;;;;5057158;28;20052;-90
2024/04/03 07:45:36;;;;;;;5.28;1.10;;;11.10;99.90;;;;;;5057351;28;20049;-90
2024/04/03 07:48:02;;;;;;;2.47;0.80;;;11.10;99.90;;;;;;5056785;28;20028;-90
2024/04/03 07:50:28;;;;;;;4.20;0.95;;;11.20;99.90;;;;;;5055629;28;20023;-89
2024/04/03 07:52:54;;;;;;;3.38;0.70;;;11.30;99.90;;;;;;5074269;28;20016;-89
2024/04/03 07:55:20;;;;;;;1.75;0.85;;;11.30;99.90;;;;;;5056629;28;20069;-90
2024/04/03 07:57:46;;;;;;;2.35;0.80;;;11.40;99.90;;;;;;5056227;28;20127;-90
2024/04/03 08:00:11;;;;;;;6.70;1.10;;;11.40;99.90;;;;;;5056529;28;20125;-90
2024/04/03 08:02:42;;;;;;;2.40;0.80;;;11.40;99.90;;;;;;5056150;28;20524;-89
2024/04/03 08:05:10;;;;;;;2.25;0.90;;;11.40;99.90;;;;;;5059635;28;20107;-90
2024/04/03 08:07:36;;;;;;;2.75;1.02;;;11.40;99.90;;;;;;5060332;28;20028;-90
2024/04/03 08:10:03;;;;;;;2.83;0.88;;;11.40;99.90;;;;;;5078160;28;20028;-90
2024/04/03 08:12:29;;;;;;;3.45;0.88;;;11.50;99.90;;;;;;5060318;28;20021;-89
2024/04/03 08:14:58;;;;;;;3.30;0.70;;;11.50;99.90;;;;;;5060029;28;20028;-90
2024/04/03 08:17:24;;;;;;;2.45;0.60;;;11.60;99.90;;;;;;5077965;28;20031;-89
2024/04/03 08:19:53;;;;;;;4.03;0.80;;;11.60;99.90;;;;;;5060003;28;20035;-91
2024/04/03 08:22:19;;;;;;;3.63;1.00;;;11.70;99.90;;;;;;5060550;28;20016;-90
2024/04/03 08:24:46;;;;;;;0.98;0.50;;;11.70;99.90;;;;;;5077579;28;20017;-90
2024/04/03 08:27:11;;;;;;;2.13;0.85;;;11.70;99.90;;;;;;5060103;28;20115;-89
2024/04/03 08:29:39;;;;;;;3.85;0.75;;;11.70;99.90;;;;;;5059545;28;20480;-90
2024/04/03 08:32:06;;;;;;;3.83;0.98;;;11.80;99.90;;;;;;5059960;28;20020;-90
2024/04/03 08:34:32;;;;;;;2.70;0.60;;;11.90;99.90;;;;;;5059567;28;20354;-91
2024/04/03 08:36:58;;;;;;;2.38;0.80;;;11.90;99.90;;;;;;5059684;28;20021;-90
2024/04/03 08:39:24;;;;;;;2.35;1.00;;;11.90;99.90;;;;;;5059864;28;20033;-90
2024/04/03 08:41:56;;;;;;;2.72;0.65;;;12.10;99.90;;;;;;5059208;28;20021;-90
2024/04/03 08:44:22;;;;;;;1.73;0.70;;;12.20;99.90;;;;;;5059458;28;20044;-90
2024/04/03 08:46:49;;;;;;;3.88;0.68;;;12.30;99.90;;;;;;5059491;28;20289;-90
2024/04/03 08:49:17;;;;;;;2.97;1.17;;;12.40;99.90;;;;;;5059453;28;20492;-89
2024/04/03 08:51:57;;;;;;;3.85;0.98;;;12.50;99.90;;;;;;5077117;28;20089;-89
2024/04/03 08:54:25;;;;;;;2.17;0.55;;;12.70;99.90;;;;;;5059563;28;20028;-90
2024/04/03 08:56:50;;;;;;;1.05;0.40;;;12.80;99.90;;;;;;5059319;28;20030;-89
2024/04/03 08:59:17;;;;;;;1.70;0.47;;;12.90;99.90;;;;;;5059372;28;20472;-89
2024/04/03 09:01:42;;;;;;;1.70;0.65;;;13.00;99.90;;;;;;5059354;28;20017;-91
2024/04/03 09:04:08;;;;;;;1.33;0.55;;;13.10;99.90;;;;;;5059442;28;20023;-90
2024/04/03 09:06:40;;;;;;;2.25;0.85;;;13.10;99.90;;;;;;5059285;28;20060;-90
2024/04/03 09:09:05;;;;;;;;;;;13.00;99.90;;;;;;5060101;28;20024;-90
2024/04/03 09:11:31;;;;;;;2.63;0.60;;;13.00;99.90;;;;;;5060141;28;19910;-89
2024/04/03 09:13:56;;;;;;;0.93;0.50;;;12.90;99.90;;;;;;5060523;28;20069;-90
2024/04/03 09:16:22;;;;;;;1.77;0.45;;;12.90;99.90;;;;;;5060078;28;20453;-90
2024/04/03 09:18:51;;;;;;;2.85;0.60;;;12.90;99.90;;;;;;5059640;28;20029;-90
2024/04/03 09:21:18;;;;;;;2.55;0.70;;;12.90;99.90;;;;;;5058903;28;20024;-90
2024/04/03 09:23:45;;;;;;;2.92;1.33;;;12.90;99.90;;;;;;5076203;28;20024;-90
2024/04/03 09:26:11;;;;;;;2.25;0.70;;;12.90;99.90;;;;;;5058781;28;20028;-90
2024/04/03 09:28:37;;;;;;;1.80;0.65;;;12.90;99.90;;;;;;5076077;28;20020;-90
2024/04/03 09:31:02;;;;;;;1.05;0.50;;;13.00;99.90;;;;;;5058644;28;20021;-89
2024/04/03 09:33:31;;;;;;;1.20;0.63;;;13.00;99.90;;;;;;5058946;28;20346;-92
2024/04/03 09:35:56;;;;;;;2.13;0.60;;;13.00;99.90;;;;;;5058607;28;20130;-89
2024/04/03 09:38:22;;;;;;;0.52;0.50;;;13.10;99.90;;;;;;5058581;28;20092;-89
2024/04/03 09:40:51;;;;;;;1.77;0.55;;;13.10;99.90;;;;;;5058242;28;20143;-89
2024/04/03 09:43:21;;;;;;;2.65;0.80;;;13.10;99.90;;;;;;5058431;28;20115;-90
2024/04/03 09:45:52;;;;;;;2.35;0.60;;;13.10;99.90;;;;;;5057876;28;20051;-87
2024/04/03 09:48:26;;;;;;;3.03;0.63;;;13.10;99.90;;;;;;5058995;28;20067;-88
2024/04/03 09:50:52;;;;;;;1.98;0.57;;;13.20;99.90;;;;;;5058033;28;20792;-90
2024/04/03 09:53:19;;;;;;;2.22;0.60;;;13.10;99.90;;;;;;5058614;28;20017;-90
2024/04/03 09:55:48;;;;;;;2.50;0.50;;;13.00;99.90;;;;;;5058080;28;20025;-90
2024/04/03 09:58:15;;;;;;;2.25;0.60;;;13.00;99.90;;;;;;5075939;28;20028;-89
2024/04/03 10:00:49;;;;;;;1.63;0.50;;;13.00;99.90;;;;;;5075741;28;20024;-90
2024/04/03 10:03:38;;;;;;;1.08;0.40;;;13.10;99.90;;;;;;5058391;28;20043;-90
2024/04/03 10:06:12;;;;;;;2.15;0.50;;;13.10;99.90;;;;;;5058993;28;20074;-89
2024/04/03 10:08:40;;;;;;;1.25;0.43;;;13.10;99.90;;;;;;5075589;28;20107;-92
2024/04/03 10:11:07;;;;;;;0.30;0.30;;;13.00;99.90;;;;;;5057914;28;20024;-89
2024/04/03 10:13:35;;;;;;;0.40;0.25;;;13.00;99.90;;;;;;5057834;28;20025;-85
2024/04/03 10:16:05;;;;;;;1.38;0.30;;;13.00;99.90;;;;;;5058018;28;20369;-89
2024/04/03 10:18:38;;;;;;;0.20;0.20;;;12.90;99.90;;;;;;5057857;28;20043;-89
2024/04/03 10:21:09;;;;;;;1.10;0.52;;;12.90;99.90;;;;;;5075527;28;20070;-89
2024/04/03 10:23:45;;;;;;;0.28;0.25;;;12.90;99.90;;;;;;5057288;28;20027;-88
2024/04/03 10:26:12;;;;;;;0.30;0.22;;;13.00;99.90;;;;;;5075475;28;20020;-88
2024/04/03 10:28:41;;;;;;;0.52;0.20;;;13.00;99.90;;;;;;5055996;28;20020;-88
2024/04/03 10:31:08;;;;;;;1.05;0.55;;;13.00;99.90;;;;;;5075191;28;20021;-88
2024/04/03 10:33:33;;;;;;;0.65;0.22;;;13.00;99.90;;;;;;5057712;28;20020;-89
2024/04/03 10:35:59;;;;;;;0.75;0.30;;;12.90;99.90;;;;;;5074841;28;20043;-90
2024/04/03 10:38:26;;;;;;;0.50;0.20;;;12.80;99.90;;;;;;5075207;28;20031;-88
2024/04/03 10:40:51;;;;;;;0.90;0.30;;;12.70;99.90;;;;;;5057004;28;20033;-88
2024/04/03 10:43:17;;;;;;;2.03;0.30;;;12.70;99.90;;;;;;5074556;28;20157;-89
2024/04/03 10:45:53;;;;;;;1.63;0.40;;;12.70;99.90;;;;;;5056334;28;20040;-88
2024/04/03 10:48:23;;;;;;;2.50;0.40;;;12.60;99.90;;;;;;5074634;28;20039;-88
2024/04/03 10:50:49;;;;;;;0.60;0.32;;;12.70;99.90;;;;;;5056569;28;20115;-89
2024/04/03 10:53:14;;;;;;;1.27;0.40;;;12.70;99.90;;;;;;5057111;28;20071;-89
2024/04/03 10:55:41;;;;;;;1.10;0.20;;;12.80;99.90;;;;;;5056755;28;20046;-88
2024/04/03 10:58:09;;;;;;;2.33;0.68;;;12.80;99.90;;;;;;5056904;28;20031;-89
2024/04/03 11:00:36;;;;;;;0.88;0.35;;;12.80;99.90;;;;;;5074471;28;20028;-89
2024/04/03 11:03:02;;;;;;;0.77;0.30;;;12.80;99.90;;;;;;5056903;28;20032;-89
2024/04/03 11:05:29;;;;;;;2.17;0.55;;;12.90;99.90;;;;;;5074506;28;20025;-89
2024/04/03 11:07:55;;;;;;;1.60;0.30;;;13.00;99.90;;;;;;5056314;28;20025;-89
2024/04/03 11:10:21;;;;;;;2.15;0.40;;;13.00;99.90;;;;;;5056769;28;20438;-89
2024/04/03 11:12:47;;;;;;;0.57;0.40;;;13.10;99.90;;;;;;5056285;28;20073;-89
2024/04/03 11:15:15;;;;;;;0.47;0.30;;;13.10;99.90;;;;;;5056629;28;20055;-89
2024/04/03 11:17:40;;;;;;;0.55;0.55;;;13.20;99.90;;;;;;5056528;28;20020;-89
2024/04/03 11:20:08;;;;;;;0.77;0.43;;;13.30;99.90;;;;;;5056860;28;20031;-88
2024/04/03 11:22:33;;;;;;;1.27;0.40;;;13.40;99.90;;;;;;5056431;28;20021;-88
2024/04/03 11:25:00;;;;;;;0.80;0.70;;;13.50;99.90;;;;;;5073805;28;20028;-89
2024/04/03 11:27:26;;;;;;;1.27;0.45;;;13.60;99.90;;;;;;5056683;28;20127;-90
2024/04/03 11:29:52;;;;;;;1.08;0.35;;;13.70;99.90;;;;;;5073698;28;20439;-88
2024/04/03 11:32:18;;;;;;;1.33;0.32;;;13.60;99.90;;;;;;5074016;28;20017;-89
2024/04/03 11:34:44;;;;;;;0.90;0.60;;;13.60;99.90;;;;;;5056005;28;20021;-88
2024/04/03 11:37:09;;;;;;;0.65;0.40;;;13.70;99.90;;;;;;5056435;28;20021;-90
2024/04/03 11:39:35;;;;;;;0.85;0.30;;;13.80;99.90;;;;;;5074242;28;20068;-89
2024/04/03 11:42:03;;;;;;;1.52;0.47;;;13.60;99.90;;;;;;5056052;28;20020;-90
2024/04/03 11:44:29;;;;;;;1.48;0.30;;;13.60;99.90;;;;;;5073976;28;20073;-88
2024/04/03 11:46:54;;;;;;;1.17;0.20;;;13.50;99.90;;;;;;5055912;28;20099;-89
2024/04/03 11:49:20;;;;;;;0.57;0.40;;;13.50;99.90;;;;;;5056270;28;20020;-89
2024/04/03 11:51:48;;;;;;;0.95;0.32;;;13.40;99.90;;;;;;5073603;28;20028;-88
2024/04/03 11:54:14;;;;;;;0.50;0.43;;;13.40;99.90;;;;;;5056353;28;20021;-90
2024/04/03 11:56:40;;;;;;;0.52;0.30;;;13.30;99.90;;;;;;5055685;28;20029;-88
2024/04/03 11:59:07;;;;;;;2.30;0.40;;;13.20;99.90;;;;;;5055938;28;20111;-89
2024/04/03 12:01:33;;;;;;;0.47;0.30;;;13.20;99.90;;;;;;5056178;28;20021;-88
2024/04/03 12:03:58;;;;;;;0.40;0.30;;;13.30;99.90;;;;;;5055904;28;20419;-90
2024/04/03 12:06:24;;;;;;;0.40;0.30;;;13.30;99.90;;;;;;5055963;28;20017;-89
2024/04/03 12:08:50;;;;;;;0.43;0.30;;;13.30;99.90;;;;;;5073330;28;20074;-91
2024/04/03 12:11:16;;;;;;;0.55;0.40;;;13.20;99.90;;;;;;5073870;28;20465;-89
2024/04/03 12:13:43;;;;;;;1.17;0.20;;;13.20;99.90;;;;;;5055368;28;20020;-90
2024/04/03 12:16:10;;;;;;;0.50;0.38;;;13.20;99.90;;;;;;5055895;28;20051;-89
2024/04/03 12:18:50;;;;;;;0.88;0.40;;;13.30;99.90;;;;;;5055754;28;20032;-90
2024/04/03 12:21:16;;;;;;;2.13;0.35;;;13.30;99.90;;;;;;5073818;28;20048;-89
2024/04/03 12:23:42;;;;;;;0.68;0.40;;;13.20;99.90;;;;;;5055253;28;20024;-89
2024/04/03 12:26:12;;;;;;;0.43;0.20;;;13.20;99.90;;;;;;5055623;28;20167;-90
2024/04/03 12:28:38;;;;;;;0.40;0.40;;;13.20;99.90;;;;;;5055683;28;20028;-89
2024/04/03 12:31:04;;;;;;;1.38;0.30;;;13.20;99.90;;;;;;5073156;28;20483;-88
2024/04/03 12:33:29;;;;;;;3.50;0.40;;;13.40;99.90;;;;;;5073590;28;20020;-88
2024/04/03 12:35:55;;;;;;;1.15;0.30;;;13.40;99.90;;;;;;5055377;28;20115;-89
2024/04/03 12:38:21;;;;;;;0.30;0.22;;;13.50;99.90;;;;;;5073624;28;20025;-89
2024/04/03 12:40:46;;;;;;;0.43;0.30;;;13.30;99.90;;;;;;5055548;28;20070;-89
2024/04/03 12:43:12;;;;;;;0.30;0.30;;;13.30;99.90;;;;;;5073573;28;20021;-88
2024/04/03 12:45:38;;;;;;;0.40;0.30;;;13.20;99.90;;;;;;5055518;28;20047;-89
2024/04/03 12:48:04;;;;;;;0.70;0.30;;;13.20;99.90;;;;;;5072989;28;20032;-90
2024/04/03 12:50:30;;;;;;;0.98;0.40;;;13.10;99.90;;;;;;5073592;28;20342;-90
2024/04/03 12:52:56;;;;;;;0.30;0.30;;;13.10;99.90;;;;;;5076485;28;20028;-89